sensor_id;sensor_type;location;lat;lon;timestamp;pressure;altitude;pressure_sealevel;temperature;humidity
72959;BME280;60008;50.826;6.896;2023-02-11T00:00:18;102954.53;;;4.69;100.00
72959;BME280;60008;50.826;6.896;2023-02-11T00:03:02;102956.16;;;4.71;100.00
72959;BME280;60008;50.826;6.896;2023-02-11T00:06:01;102959.50;;;4.75;100.00
72959;BME280;60008;50.826;6.896;2023-02-11T00:08:48;102946.25;;;4.78;100.00
72959;BME280;60008;50.826;6.896;2023-02-11T00:11:33;102934.28;;;4.71;100.00
72959;BME280;60008;50.826;6.896;2023-02-11T00:14:18;102929.00;;;4.52;100.00
72959;BME280;60008;50.826;6.896;2023-02-11T00:17:03;102923.72;;;4.54;100.00
72959;BME280;60008;50.826;6.896;2023-02-11T00:19:49;102920.22;;;4.53;100.00
72959;BME280;60008;50.826;6.896;2023-02-11T00:22:35;102918.03;;;4.63;100.00
72959;BME280;60008;50.826;6.896;2023-02-11T00:25:20;102920.66;;;4.81;100.00
72959;BME280;60008;50.826;6.896;2023-02-11T00:28:05;102916.13;;;5.22;100.00
72959;BME280;60008;50.826;6.896;2023-02-11T00:30:55;102904.03;;;5.37;100.00
72959;BME280;60008;50.826;6.896;2023-02-11T00:33:40;102900.59;;;5.54;100.00
72959;BME280;60008;50.826;6.896;2023-02-11T00:36:27;102888.34;;;5.88;100.00
72959;BME280;60008;50.826;6.896;2023-02-11T00:39:12;102889.66;;;5.97;100.00
72959;BME280;60008;50.826;6.896;2023-02-11T00:41:57;102886.94;;;5.98;100.00
72959;BME280;60008;50.826;6.896;2023-02-11T00:44:43;102896.28;;;6.04;100.00
72959;BME280;60008;50.826;6.896;2023-02-11T00:47:27;102891.63;;;6.09;100.00
72959;BME280;60008;50.826;6.896;2023-02-11T00:50:13;102891.19;;;6.18;100.00
72959;BME280;60008;50.826;6.896;2023-02-11T00:52:57;102892.34;;;6.13;100.00
72959;BME280;60008;50.826;6.896;2023-02-11T00:55:43;102874.78;;;6.13;100.00
72959;BME280;60008;50.826;6.896;2023-02-11T00:58:28;102881.34;;;6.05;100.00
72959;BME280;60008;50.826;6.896;2023-02-11T01:01:13;102886.16;;;5.96;100.00
72959;BME280;60008;50.826;6.896;2023-02-11T01:03:58;102883.06;;;5.88;100.00
72959;BME280;60008;50.826;6.896;2023-02-11T01:06:43;102879.69;;;5.86;100.00
72959;BME280;60008;50.826;6.896;2023-02-11T01:09:28;102879.59;;;5.88;100.00
72959;BME280;60008;50.826;6.896;2023-02-11T01:12:13;102876.72;;;5.92;100.00
72959;BME280;60008;50.826;6.896;2023-02-11T01:14:58;102883.38;;;5.99;100.00
72959;BME280;60008;50.826;6.896;2023-02-11T01:17:43;102894.16;;;5.95;100.00
72959;BME280;60008;50.826;6.896;2023-02-11T01:20:29;102896.22;;;5.88;100.00
72959;BME280;60008;50.826;6.896;2023-02-11T01:23:14;102892.75;;;5.88;100.00
72959;BME280;60008;50.826;6.896;2023-02-11T01:25:59;102889.09;;;5.73;100.00
72959;BME280;60008;50.826;6.896;2023-02-11T01:28:44;102890.53;;;5.62;100.00
72959;BME280;60008;50.826;6.896;2023-02-11T01:31:30;102897.47;;;5.63;100.00
72959;BME280;60008;50.826;6.896;2023-02-11T01:34:15;102895.94;;;5.59;100.00
72959;BME280;60008;50.826;6.896;2023-02-11T01:37:00;102897.38;;;5.47;100.00
72959;BME280;60008;50.826;6.896;2023-02-11T01:39:46;102903.94;;;5.38;100.00
72959;BME280;60008;50.826;6.896;2023-02-11T01:42:31;102906.31;;;5.26;100.00
72959;BME280;60008;50.826;6.896;2023-02-11T01:48:37;102899.28;;;5.26;100.00
72959;BME280;60008;50.826;6.896;2023-02-11T01:51:29;102904.94;;;5.36;100.00
72959;BME280;60008;50.826;6.896;2023-02-11T01:54:20;102914.59;;;5.35;100.00
72959;BME280;60008;50.826;6.896;2023-02-11T01:57:27;102916.59;;;5.30;100.00
72959;BME280;60008;50.826;6.896;2023-02-11T02:00:17;102918.47;;;5.28;100.00
72959;BME280;60008;50.826;6.896;2023-02-11T02:03:14;102913.47;;;5.41;100.00
72959;BME280;60008;50.826;6.896;2023-02-11T02:06:11;102909.78;;;5.45;100.00
72959;BME280;60008;50.826;6.896;2023-02-11T02:09:04;102914.50;;;5.56;100.00
72959;BME280;60008;50.826;6.896;2023-02-11T02:11:50;102907.53;;;5.55;100.00
72959;BME280;60008;50.826;6.896;2023-02-11T02:14:39;102908.38;;;5.55;100.00
72959;BME280;60008;50.826;6.896;2023-02-11T02:17:37;102898.28;;;5.65;100.00
72959;BME280;60008;50.826;6.896;2023-02-11T02:26:27;102894.03;;;5.62;100.00
72959;BME280;60008;50.826;6.896;2023-02-11T02:29:30;102900.06;;;5.64;100.00
72959;BME280;60008;50.826;6.896;2023-02-11T02:35:36;102883.81;;;5.56;100.00
72959;BME280;60008;50.826;6.896;2023-02-11T02:41:11;102882.78;;;5.59;100.00
72959;BME280;60008;50.826;6.896;2023-02-11T02:43:57;102880.06;;;5.60;100.00
72959;BME280;60008;50.826;6.896;2023-02-11T02:46:42;102868.88;;;5.57;100.00
72959;BME280;60008;50.826;6.896;2023-02-11T02:49:28;102871.56;;;5.55;100.00
72959;BME280;60008;50.826;6.896;2023-02-11T02:52:39;102863.63;;;5.57;100.00
72959;BME280;60008;50.826;6.896;2023-02-11T03:05:08;102851.22;;;5.41;100.00
72959;BME280;60008;50.826;6.896;2023-02-11T03:08:02;102851.59;;;5.34;100.00
72959;BME280;60008;50.826;6.896;2023-02-11T03:10:51;102848.19;;;5.32;100.00
72959;BME280;60008;50.826;6.896;2023-02-11T03:13:38;102844.16;;;5.25;100.00
72959;BME280;60008;50.826;6.896;2023-02-11T03:16:26;102835.34;;;5.26;100.00
72959;BME280;60008;50.826;6.896;2023-02-11T03:19:15;102836.59;;;5.19;100.00
72959;BME280;60008;50.826;6.896;2023-02-11T03:22:05;102846.00;;;5.23;100.00
72959;BME280;60008;50.826;6.896;2023-02-11T03:24:51;102831.38;;;5.17;100.00
72959;BME280;60008;50.826;6.896;2023-02-11T03:27:55;102825.72;;;5.08;100.00
72959;BME280;60008;50.826;6.896;2023-02-11T03:30:49;102827.75;;;5.03;100.00
72959;BME280;60008;50.826;6.896;2023-02-11T03:34:02;102840.66;;;5.07;100.00
72959;BME280;60008;50.826;6.896;2023-02-11T03:36:53;102839.56;;;5.11;100.00
72959;BME280;60008;50.826;6.896;2023-02-11T03:40:04;102844.75;;;5.13;100.00
72959;BME280;60008;50.826;6.896;2023-02-11T03:42:57;102851.41;;;5.20;100.00
72959;BME280;60008;50.826;6.896;2023-02-11T03:45:45;102835.59;;;5.21;100.00
72959;BME280;60008;50.826;6.896;2023-02-11T03:48:39;102839.97;;;5.21;100.00
72959;BME280;60008;50.826;6.896;2023-02-11T03:51:26;102829.53;;;5.19;100.00
72959;BME280;60008;50.826;6.896;2023-02-11T03:54:14;102834.88;;;5.18;100.00
72959;BME280;60008;50.826;6.896;2023-02-11T03:57:02;102830.63;;;5.15;100.00
72959;BME280;60008;50.826;6.896;2023-02-11T03:59:51;102824.50;;;5.15;100.00
72959;BME280;60008;50.826;6.896;2023-02-11T04:02:38;102826.34;;;5.13;100.00
72959;BME280;60008;50.826;6.896;2023-02-11T04:05:23;102826.34;;;5.13;100.00
72959;BME280;60008;50.826;6.896;2023-02-11T04:08:09;102833.47;;;5.11;100.00
72959;BME280;60008;50.826;6.896;2023-02-11T04:10:54;102833.66;;;5.06;100.00
72959;BME280;60008;50.826;6.896;2023-02-11T04:13:39;102833.81;;;5.03;100.00
72959;BME280;60008;50.826;6.896;2023-02-11T04:16:24;102833.19;;;4.98;100.00
72959;BME280;60008;50.826;6.896;2023-02-11T04:19:09;102848.03;;;4.99;100.00
72959;BME280;60008;50.826;6.896;2023-02-11T04:21:55;102833.00;;;5.03;100.00
72959;BME280;60008;50.826;6.896;2023-02-11T04:24:40;102845.03;;;5.07;100.00
72959;BME280;60008;50.826;6.896;2023-02-11T04:27:27;102842.50;;;5.05;100.00
72959;BME280;60008;50.826;6.896;2023-02-11T04:30:12;102839.88;;;5.05;100.00
72959;BME280;60008;50.826;6.896;2023-02-11T04:32:58;102850.31;;;5.07;100.00
72959;BME280;60008;50.826;6.896;2023-02-11T04:35:43;102837.06;;;5.08;100.00
72959;BME280;60008;50.826;6.896;2023-02-11T04:38:28;102838.25;;;5.03;100.00
72959;BME280;60008;50.826;6.896;2023-02-11T04:41:14;102828.50;;;5.05;100.00
72959;BME280;60008;50.826;6.896;2023-02-11T04:43:58;102824.78;;;5.09;100.00
72959;BME280;60008;50.826;6.896;2023-02-11T04:46:44;102828.38;;;5.08;100.00
72959;BME280;60008;50.826;6.896;2023-02-11T04:49:28;102818.75;;;5.07;100.00
72959;BME280;60008;50.826;6.896;2023-02-11T04:52:14;102818.75;;;5.07;100.00
72959;BME280;60008;50.826;6.896;2023-02-11T04:54:59;102810.16;;;5.03;100.00
72959;BME280;60008;50.826;6.896;2023-02-11T04:57:44;102804.84;;;5.05;100.00
72959;BME280;60008;50.826;6.896;2023-02-11T05:00:29;102795.13;;;5.07;100.00
72959;BME280;60008;50.826;6.896;2023-02-11T05:03:15;102804.84;;;5.05;100.00
72959;BME280;60008;50.826;6.896;2023-02-11T05:06:00;102805.53;;;5.08;100.00
72959;BME280;60008;50.826;6.896;2023-02-11T05:08:45;102809.88;;;5.09;100.00
72959;BME280;60008;50.826;6.896;2023-02-11T05:11:30;102804.56;;;5.11;100.00
72959;BME280;60008;50.826;6.896;2023-02-11T05:14:15;102808.03;;;5.11;100.00
72959;BME280;60008;50.826;6.896;2023-02-11T05:16:59;102808.72;;;5.15;100.00
72959;BME280;60008;50.826;6.896;2023-02-11T05:19:45;102809.72;;;5.12;100.00
72959;BME280;60008;50.826;6.896;2023-02-11T05:22:30;102822.78;;;5.14;100.00
72959;BME280;60008;50.826;6.896;2023-02-11T05:25:15;102818.53;;;5.11;100.00
72959;BME280;60008;50.826;6.896;2023-02-11T05:28:00;102810.66;;;5.11;100.00
72959;BME280;60008;50.826;6.896;2023-02-11T05:30:45;102819.38;;;5.12;100.00
72959;BME280;60008;50.826;6.896;2023-02-11T05:33:30;102814.13;;;5.12;100.00
72959;BME280;60008;50.826;6.896;2023-02-11T05:36:17;102810.88;;;5.07;100.00
72959;BME280;60008;50.826;6.896;2023-02-11T05:39:02;102807.25;;;5.09;100.00
72959;BME280;60008;50.826;6.896;2023-02-11T05:41:47;102805.63;;;5.07;100.00
72959;BME280;60008;50.826;6.896;2023-02-11T05:44:31;102802.00;;;5.09;100.00
72959;BME280;60008;50.826;6.896;2023-02-11T05:47:17;102795.13;;;5.07;100.00
72959;BME280;60008;50.826;6.896;2023-02-11T05:50:02;102798.84;;;5.03;100.00
72959;BME280;60008;50.826;6.896;2023-02-11T05:52:46;102797.13;;;5.02;100.00
72959;BME280;60008;50.826;6.896;2023-02-11T05:55:32;102797.97;;;5.02;100.00
72959;BME280;60008;50.826;6.896;2023-02-11T05:58:17;102801.47;;;5.03;100.00
72959;BME280;60008;50.826;6.896;2023-02-11T06:01:02;102805.06;;;5.00;100.00
72959;BME280;60008;50.826;6.896;2023-02-11T06:03:47;102797.19;;;5.00;100.00
72959;BME280;60008;50.826;6.896;2023-02-11T06:06:33;102800.91;;;4.96;100.00
72959;BME280;60008;50.826;6.896;2023-02-11T06:09:18;102795.56;;;4.98;100.00
72959;BME280;60008;50.826;6.896;2023-02-11T06:12:03;102791.16;;;4.98;100.00
72959;BME280;60008;50.826;6.896;2023-02-11T06:14:49;102800.75;;;4.99;100.00
72959;BME280;60008;50.826;6.896;2023-02-11T06:17:33;102805.16;;;4.99;100.00
72959;BME280;60008;50.826;6.896;2023-02-11T06:20:20;102810.97;;;5.05;100.00
72959;BME280;60008;50.826;6.896;2023-02-11T06:23:05;102799.59;;;5.05;100.00
72959;BME280;60008;50.826;6.896;2023-02-11T06:25:51;102797.66;;;5.08;100.00
72959;BME280;60008;50.826;6.896;2023-02-11T06:28:37;102788.84;;;5.09;100.00
72959;BME280;60008;50.826;6.896;2023-02-11T06:31:26;102788.81;;;5.11;100.00
72959;BME280;60008;50.826;6.896;2023-02-11T06:34:12;102794.88;;;5.11;100.00
72959;BME280;60008;50.826;6.896;2023-02-11T06:36:56;102793.25;;;5.09;100.00
72959;BME280;60008;50.826;6.896;2023-02-11T06:39:43;102802.09;;;5.08;100.00
72959;BME280;60008;50.826;6.896;2023-02-11T06:42:29;102803.84;;;5.07;100.00
72959;BME280;60008;50.826;6.896;2023-02-11T06:45:14;102801.22;;;5.07;100.00
72959;BME280;60008;50.826;6.896;2023-02-11T06:47:59;102812.50;;;5.09;100.00
72959;BME280;60008;50.826;6.896;2023-02-11T06:50:44;102810.75;;;5.10;100.00
72959;BME280;60008;50.826;6.896;2023-02-11T06:53:30;102811.75;;;5.07;100.00
72959;BME280;60008;50.826;6.896;2023-02-11T06:56:19;102821.41;;;5.07;100.00
72959;BME280;60008;50.826;6.896;2023-02-11T06:59:04;102818.91;;;5.04;100.00
72959;BME280;60008;50.826;6.896;2023-02-11T07:01:50;102820.78;;;5.02;100.00
72959;BME280;60008;50.826;6.896;2023-02-11T07:04:34;102824.31;;;5.01;100.00
72959;BME280;60008;50.826;6.896;2023-02-11T07:07:20;102837.16;;;5.07;100.00
72959;BME280;60008;50.826;6.896;2023-02-11T07:10:05;102836.94;;;5.11;100.00
72959;BME280;60008;50.826;6.896;2023-02-11T07:12:50;102833.63;;;5.08;100.00
72959;BME280;60008;50.826;6.896;2023-02-11T07:15:36;102835.53;;;5.04;100.00
72959;BME280;60008;50.826;6.896;2023-02-11T07:18:21;102838.88;;;5.08;100.00
72959;BME280;60008;50.826;6.896;2023-02-11T07:21:08;102844.03;;;5.09;100.00
72959;BME280;60008;50.826;6.896;2023-02-11T07:23:54;102839.41;;;5.14;100.00
72959;BME280;60008;50.826;6.896;2023-02-11T07:26:39;102849.72;;;5.19;100.00
72959;BME280;60008;50.826;6.896;2023-02-11T07:29:24;102848.78;;;5.20;100.00
72959;BME280;60008;50.826;6.896;2023-02-11T07:32:10;102850.41;;;5.22;100.00
72959;BME280;60008;50.826;6.896;2023-02-11T07:34:55;102865.13;;;5.26;100.00
72959;BME280;60008;50.826;6.896;2023-02-11T07:37:40;102869.38;;;5.29;100.00
72959;BME280;60008;50.826;6.896;2023-02-11T07:40:25;102870.91;;;5.33;100.00
72959;BME280;60008;50.826;6.896;2023-02-11T07:43:10;102876.16;;;5.33;100.00
72959;BME280;60008;50.826;6.896;2023-02-11T07:45:55;102882.75;;;5.41;100.00
72959;BME280;60008;50.826;6.896;2023-02-11T07:48:40;102890.66;;;5.41;100.00
72959;BME280;60008;50.826;6.896;2023-02-11T07:51:27;102886.88;;;5.47;100.00
72959;BME280;60008;50.826;6.896;2023-02-11T07:54:12;102892.75;;;5.52;100.00
72959;BME280;60008;50.826;6.896;2023-02-11T07:56:57;102890.22;;;5.51;100.00
72959;BME280;60008;50.826;6.896;2023-02-11T07:59:42;102896.00;;;5.57;100.00
72959;BME280;60008;50.826;6.896;2023-02-11T08:02:27;102896.09;;;5.56;100.00
72959;BME280;60008;50.826;6.896;2023-02-11T08:05:12;102900.44;;;5.57;100.00
72959;BME280;60008;50.826;6.896;2023-02-11T08:07:57;102894.09;;;5.61;100.00
72959;BME280;60008;50.826;6.896;2023-02-11T08:10:42;102902.06;;;5.59;100.00
72959;BME280;60008;50.826;6.896;2023-02-11T08:13:27;102898.50;;;5.60;100.00
72959;BME280;60008;50.826;6.896;2023-02-11T08:16:25;102903.69;;;5.62;100.00
72959;BME280;60008;50.826;6.896;2023-02-11T08:19:15;102903.75;;;5.60;100.00
72959;BME280;60008;50.826;6.896;2023-02-11T08:22:00;102902.69;;;5.64;100.00
72959;BME280;60008;50.826;6.896;2023-02-11T08:24:45;102902.59;;;5.66;100.00
72959;BME280;60008;50.826;6.896;2023-02-11T08:27:30;102900.59;;;5.71;100.00
72959;BME280;60008;50.826;6.896;2023-02-11T08:30:15;102893.63;;;5.70;100.00
72959;BME280;60008;50.826;6.896;2023-02-11T08:33:00;102899.53;;;5.75;100.00
72959;BME280;60008;50.826;6.896;2023-02-11T08:35:46;102896.78;;;5.76;100.00
72959;BME280;60008;50.826;6.896;2023-02-11T08:38:31;102901.16;;;5.77;100.00
72959;BME280;60008;50.826;6.896;2023-02-11T08:41:16;102900.06;;;5.81;100.00
72959;BME280;60008;50.826;6.896;2023-02-11T08:44:02;102901.41;;;5.90;100.00
72959;BME280;60008;50.826;6.896;2023-02-11T08:46:48;102900.38;;;5.92;100.00
72959;BME280;60008;50.826;6.896;2023-02-11T08:49:33;102905.59;;;5.94;100.00
72959;BME280;60008;50.826;6.896;2023-02-11T08:52:18;102907.38;;;5.93;100.00
72959;BME280;60008;50.826;6.896;2023-02-11T08:55:04;102910.91;;;5.92;100.00
72959;BME280;60008;50.826;6.896;2023-02-11T08:57:49;102907.84;;;6.02;100.00
72959;BME280;60008;50.826;6.896;2023-02-11T09:00:34;102900.53;;;6.07;100.00
72959;BME280;60008;50.826;6.896;2023-02-11T09:03:20;102915.13;;;6.14;100.00
72959;BME280;60008;50.826;6.896;2023-02-11T09:06:07;102921.25;;;6.14;100.00
72959;BME280;60008;50.826;6.896;2023-02-11T09:08:55;102928.75;;;6.22;100.00
72959;BME280;60008;50.826;6.896;2023-02-11T09:11:42;102929.03;;;6.16;100.00
72959;BME280;60008;50.826;6.896;2023-02-11T09:14:28;102925.56;;;6.15;100.00
72959;BME280;60008;50.826;6.896;2023-02-11T09:17:13;102928.34;;;6.12;100.00
72959;BME280;60008;50.826;6.896;2023-02-11T09:19:58;102934.56;;;6.11;100.00
72959;BME280;60008;50.826;6.896;2023-02-11T09:22:43;102941.34;;;6.15;100.00
72959;BME280;60008;50.826;6.896;2023-02-11T09:25:28;102944.69;;;6.19;100.00
72959;BME280;60008;50.826;6.896;2023-02-11T09:28:13;102953.09;;;6.25;100.00
72959;BME280;60008;50.826;6.896;2023-02-11T09:31:04;102952.44;;;6.22;100.00
72959;BME280;60008;50.826;6.896;2023-02-11T09:33:52;102947.00;;;6.25;100.00
72959;BME280;60008;50.826;6.896;2023-02-11T09:36:39;102942.50;;;6.27;100.00
72959;BME280;60008;50.826;6.896;2023-02-11T09:39:24;102949.94;;;6.36;100.00
72959;BME280;60008;50.826;6.896;2023-02-11T09:42:39;102950.56;;;6.41;100.00
72959;BME280;60008;50.826;6.896;2023-02-11T09:45:28;102949.41;;;6.46;100.00
72959;BME280;60008;50.826;6.896;2023-02-11T09:48:19;102949.69;;;6.40;100.00
72959;BME280;60008;50.826;6.896;2023-02-11T09:51:13;102950.22;;;6.47;100.00
72959;BME280;60008;50.826;6.896;2023-02-11T09:54:04;102944.41;;;6.57;100.00
72959;BME280;60008;50.826;6.896;2023-02-11T09:56:53;102946.41;;;6.52;100.00
72959;BME280;60008;50.826;6.896;2023-02-11T09:59:38;102954.31;;;6.52;100.00
72959;BME280;60008;50.826;6.896;2023-02-11T10:02:44;102963.69;;;6.58;100.00
72959;BME280;60008;50.826;6.896;2023-02-11T10:05:48;102960.22;;;6.57;100.00
72959;BME280;60008;50.826;6.896;2023-02-11T10:15:12;102960.31;;;6.72;100.00
72959;BME280;60008;50.826;6.896;2023-02-11T10:21:13;102959.00;;;6.80;100.00
72959;BME280;60008;50.826;6.896;2023-02-11T10:24:03;102966.13;;;6.78;100.00
72959;BME280;60008;50.826;6.896;2023-02-11T10:26:50;102975.81;;;6.78;100.00
72959;BME280;60008;50.826;6.896;2023-02-11T10:29:39;102977.69;;;6.76;100.00
72959;BME280;60008;50.826;6.896;2023-02-11T10:35:43;102968.06;;;6.75;100.00
72959;BME280;60008;50.826;6.896;2023-02-11T10:38:29;102972.84;;;6.84;100.00
72959;BME280;60008;50.826;6.896;2023-02-11T10:41:29;102972.53;;;6.90;100.00
72959;BME280;60008;50.826;6.896;2023-02-11T10:44:32;102971.00;;;7.01;100.00
72959;BME280;60008;50.826;6.896;2023-02-11T10:47:21;102969.81;;;7.07;100.00
72959;BME280;60008;50.826;6.896;2023-02-11T10:50:28;102978.09;;;7.01;100.00
72959;BME280;60008;50.826;6.896;2023-02-11T10:53:19;102976.34;;;6.84;100.00
72959;BME280;60008;50.826;6.896;2023-02-11T10:56:06;102980.09;;;6.96;100.00
72959;BME280;60008;50.826;6.896;2023-02-11T10:59:03;102978.91;;;7.01;100.00
72959;BME280;60008;50.826;6.896;2023-02-11T11:01:52;102986.91;;;7.00;100.00
72959;BME280;60008;50.826;6.896;2023-02-11T11:04:39;102989.88;;;6.94;100.00
72959;BME280;60008;50.826;6.896;2023-02-11T11:07:29;102978.63;;;6.90;100.00
72959;BME280;60008;50.826;6.896;2023-02-11T11:10:27;102985.56;;;6.93;100.00
72959;BME280;60008;50.826;6.896;2023-02-11T11:13:23;102979.28;;;6.95;100.00
72959;BME280;60008;50.826;6.896;2023-02-11T11:21:53;102974.31;;;6.89;100.00
72959;BME280;60008;50.826;6.896;2023-02-11T11:24:43;102976.19;;;6.87;100.00
72959;BME280;60008;50.826;6.896;2023-02-11T11:27:28;102976.19;;;6.87;100.00
72959;BME280;60008;50.826;6.896;2023-02-11T11:30:15;102974.91;;;6.94;100.00
72959;BME280;60008;50.826;6.896;2023-02-11T11:33:01;102957.31;;;6.95;100.00
72959;BME280;60008;50.826;6.896;2023-02-11T11:36:02;102963.69;;;6.91;100.00
72959;BME280;60008;50.826;6.896;2023-02-11T11:39:01;102960.88;;;6.94;100.00
72959;BME280;60008;50.826;6.896;2023-02-11T11:41:57;102969.38;;;6.99;100.00
72959;BME280;60008;50.826;6.896;2023-02-11T11:44:58;102964.47;;;6.93;100.00
72959;BME280;60008;50.826;6.896;2023-02-11T11:47:51;102957.00;;;7.01;100.00
72959;BME280;60008;50.826;6.896;2023-02-11T11:50:43;102962.44;;;6.98;100.00
72959;BME280;60008;50.826;6.896;2023-02-11T11:53:52;102957.16;;;6.98;100.00
72959;BME280;60008;50.826;6.896;2023-02-11T11:57:03;102953.50;;;7.00;100.00
72959;BME280;60008;50.826;6.896;2023-02-11T11:59:54;102947.81;;;6.92;100.00
72959;BME280;60008;50.826;6.896;2023-02-11T12:03:03;102954.09;;;6.90;100.00
72959;BME280;60008;50.826;6.896;2023-02-11T12:09:13;102937.00;;;6.97;100.00
72959;BME280;60008;50.826;6.896;2023-02-11T12:18:43;102952.81;;;6.97;100.00
72959;BME280;60008;50.826;6.896;2023-02-11T12:27:58;102957.28;;;7.12;100.00
72959;BME280;60008;50.826;6.896;2023-02-11T12:30:54;102964.81;;;7.18;100.00
72959;BME280;60008;50.826;6.896;2023-02-11T12:43:39;102973.75;;;7.15;100.00
72959;BME280;60008;50.826;6.896;2023-02-11T12:46:49;102978.88;;;7.18;100.00
72959;BME280;60008;50.826;6.896;2023-02-11T12:56:21;102977.84;;;7.21;100.00
72959;BME280;60008;50.826;6.896;2023-02-11T12:59:22;102974.34;;;7.20;100.00
72959;BME280;60008;50.826;6.896;2023-02-11T13:05:33;102973.41;;;7.06;100.00
72959;BME280;60008;50.826;6.896;2023-02-11T13:08:28;102963.47;;;7.11;100.00
72959;BME280;60008;50.826;6.896;2023-02-11T13:11:22;102964.31;;;7.11;100.00
72959;BME280;60008;50.826;6.896;2023-02-11T13:14:14;102967.63;;;7.15;100.00
72959;BME280;60008;50.826;6.896;2023-02-11T13:17:03;102957.88;;;7.17;100.00
72959;BME280;60008;50.826;6.896;2023-02-11T13:20:01;102965.94;;;7.14;100.00
72959;BME280;60008;50.826;6.896;2023-02-11T13:23:03;102959.97;;;7.10;100.00
72959;BME280;60008;50.826;6.896;2023-02-11T13:25:58;102964.72;;;7.04;100.00
72959;BME280;60008;50.826;6.896;2023-02-11T13:28:54;102958.19;;;7.11;100.00
72959;BME280;60008;50.826;6.896;2023-02-11T13:31:40;102962.63;;;7.10;100.00
72959;BME280;60008;50.826;6.896;2023-02-11T13:37:36;102951.47;;;7.05;100.00
72959;BME280;60008;50.826;6.896;2023-02-11T13:40:32;102962.34;;;6.99;100.00
72959;BME280;60008;50.826;6.896;2023-02-11T13:43:23;102964.91;;;7.01;100.00
72959;BME280;60008;50.826;6.896;2023-02-11T13:46:12;102971.97;;;7.00;100.00
72959;BME280;60008;50.826;6.896;2023-02-11T13:48:58;102961.41;;;7.00;100.00
72959;BME280;60008;50.826;6.896;2023-02-11T13:51:44;102971.25;;;6.97;100.00
72959;BME280;60008;50.826;6.896;2023-02-11T13:54:32;102964.06;;;7.00;100.00
72959;BME280;60008;50.826;6.896;2023-02-11T14:03:33;102965.72;;;7.01;100.00
72959;BME280;60008;50.826;6.896;2023-02-11T14:06:37;102957.59;;;7.06;100.00
72959;BME280;60008;50.826;6.896;2023-02-11T14:09:41;102959.53;;;7.02;100.00
72959;BME280;60008;50.826;6.896;2023-02-11T14:12:33;102960.06;;;7.09;100.00
72959;BME280;60008;50.826;6.896;2023-02-11T14:15:19;102954.81;;;7.09;100.00
72959;BME280;60008;50.826;6.896;2023-02-11T14:18:34;102955.81;;;7.06;100.00
72959;BME280;60008;50.826;6.896;2023-02-11T14:27:19;102961.16;;;7.20;100.00
72959;BME280;60008;50.826;6.896;2023-02-11T14:33:14;102956.31;;;7.29;100.00
72959;BME280;60008;50.826;6.896;2023-02-11T14:41:46;102958.63;;;7.35;100.00
72959;BME280;60008;50.826;6.896;2023-02-11T14:44:32;102963.41;;;7.28;100.00
72959;BME280;60008;50.826;6.896;2023-02-11T14:47:21;102973.94;;;7.28;100.00
72959;BME280;60008;50.826;6.896;2023-02-11T14:50:21;102968.47;;;7.31;100.00
72959;BME280;60008;50.826;6.896;2023-02-11T14:53:16;102965.78;;;7.33;100.00
72959;BME280;60008;50.826;6.896;2023-02-11T14:56:02;102962.53;;;7.28;100.00
72959;BME280;60008;50.826;6.896;2023-02-11T14:58:59;102959.91;;;7.28;100.00
72959;BME280;60008;50.826;6.896;2023-02-11T15:01:51;102962.28;;;7.32;100.00
72959;BME280;60008;50.826;6.896;2023-02-11T15:04:38;102958.28;;;7.25;100.00
72959;BME280;60008;50.826;6.896;2023-02-11T15:07:25;102963.13;;;7.33;100.00
72959;BME280;60008;50.826;6.896;2023-02-11T15:10:35;102961.34;;;7.33;100.00
72959;BME280;60008;50.826;6.896;2023-02-11T15:13:23;102971.06;;;7.33;100.00
72959;BME280;60008;50.826;6.896;2023-02-11T15:16:12;102970.88;;;7.36;100.00
72959;BME280;60008;50.826;6.896;2023-02-11T15:19:04;102965.28;;;7.42;100.00
72959;BME280;60008;50.826;6.896;2023-02-11T15:21:52;102971.38;;;7.42;100.00
72959;BME280;60008;50.826;6.896;2023-02-11T15:24:37;102963.72;;;7.38;100.00
72959;BME280;60008;50.826;6.896;2023-02-11T15:27:24;102959.38;;;7.37;100.00
72959;BME280;60008;50.826;6.896;2023-02-11T15:33:20;102968.31;;;7.34;100.00
72959;BME280;60008;50.826;6.896;2023-02-11T15:36:10;102980.41;;;7.38;100.00
72959;BME280;60008;50.826;6.896;2023-02-11T15:39:16;102983.81;;;7.40;100.00
72959;BME280;60008;50.826;6.896;2023-02-11T15:42:27;102978.53;;;7.40;100.00
72959;BME280;60008;50.826;6.896;2023-02-11T15:45:20;102979.56;;;7.38;100.00
72959;BME280;60008;50.826;6.896;2023-02-11T15:48:15;102989.09;;;7.40;100.00
72959;BME280;60008;50.826;6.896;2023-02-11T15:51:12;102983.06;;;7.38;100.00
72959;BME280;60008;50.826;6.896;2023-02-11T15:54:05;102986.72;;;7.36;100.00
72959;BME280;60008;50.826;6.896;2023-02-11T15:56:53;102983.13;;;7.37;100.00
72959;BME280;60008;50.826;6.896;2023-02-11T15:59:47;102989.56;;;7.31;100.00
72959;BME280;60008;50.826;6.896;2023-02-11T16:02:34;102987.91;;;7.30;100.00
72959;BME280;60008;50.826;6.896;2023-02-11T16:05:35;102991.41;;;7.31;100.00
72959;BME280;60008;50.826;6.896;2023-02-11T16:08:27;102999.47;;;7.28;100.00
72959;BME280;60008;50.826;6.896;2023-02-11T16:14:34;102993.50;;;7.24;100.00
72959;BME280;60008;50.826;6.896;2023-02-11T16:17:24;102995.38;;;7.22;100.00
72959;BME280;60008;50.826;6.896;2023-02-11T16:20:19;102995.59;;;7.17;100.00
72959;BME280;60008;50.826;6.896;2023-02-11T16:23:06;103011.53;;;7.16;100.00
72959;BME280;60008;50.826;6.896;2023-02-11T16:25:57;103003.78;;;7.13;100.00
72959;BME280;60008;50.826;6.896;2023-02-11T16:28:43;103010.00;;;7.12;100.00
72959;BME280;60008;50.826;6.896;2023-02-11T16:31:37;103015.44;;;7.09;100.00
72959;BME280;60008;50.826;6.896;2023-02-11T16:34:24;103017.38;;;7.05;100.00